Time,TemperatureF,DewpointF,PressureIn,WindDirection,WindDirectionDegrees,WindSpeedMPH,WindSpeedGustMPH,Humidity,HourlyPrecipIn,Conditions,Clouds,dailyrainin,SoftwareType,DateUTC
2013-02-17 00:00:00,20.6,10.4,29.99,WNW,292,5.0,13.0,64,0.00,,---,0.00,VWS V14.01,2013-02-17 05:00:00,
2013-02-17 00:10:00,20.5,9.9,29.99,West,270,4.0,13.0,63,0.00,,---,0.00,VWS V14.01,2013-02-17 05:10:00,
2013-02-17 00:20:00,20.5,9.6,30.00,West,270,6.0,18.0,62,0.00,,---,0.00,VWS V14.01,2013-02-17 05:20:00,
2013-02-17 00:30:00,20.3,9.4,30.00,WNW,292,3.0,13.0,62,0.00,,---,0.00,VWS V14.01,2013-02-17 05:30:00,
2013-02-17 00:40:00,20.3,9.0,30.00,WNW,292,4.0,11.0,61,0.00,,---,0.00,VWS V14.01,2013-02-17 05:40:00,
2013-02-17 00:50:00,20.2,8.9,30.01,NW,315,5.0,13.0,61,0.00,,---,0.00,VWS V14.01,2013-02-17 05:50:00,
2013-02-17 01:00:00,20.0,8.4,30.00,WSW,248,6.0,13.0,60,0.00,,---,0.00,VWS V14.01,2013-02-17 06:00:00,
2013-02-17 01:10:00,19.9,7.5,30.00,West,270,7.0,16.0,58,0.00,,---,0.00,VWS V14.01,2013-02-17 06:10:00,
2013-02-17 01:20:00,19.5,7.1,30.01,West,270,7.0,14.0,58,0.00,,---,0.00,VWS V14.01,2013-02-17 06:20:00,
2013-02-17 01:30:00,19.4,6.7,30.02,WNW,292,5.0,14.0,57,0.00,,---,0.00,VWS V14.01,2013-02-17 06:30:00,
2013-02-17 01:40:00,19.2,6.1,30.02,WNW,292,5.0,16.0,56,0.00,,---,0.00,VWS V14.01,2013-02-17 06:40:00,
2013-02-17 01:50:00,19.1,5.6,30.01,NW,315,5.0,13.0,55,0.00,,---,0.00,VWS V14.01,2013-02-17 06:50:00,
2013-02-17 02:00:00,18.8,5.3,30.02,WNW,292,4.0,11.0,55,0.00,,---,0.00,VWS V14.01,2013-02-17 07:00:00,
2013-02-17 02:10:00,18.8,5.3,30.02,NW,315,6.0,16.0,55,0.00,,---,0.00,VWS V14.01,2013-02-17 07:10:00,
2013-02-17 02:20:00,18.6,5.1,30.03,West,270,4.0,11.0,55,0.00,,---,0.00,VWS V14.01,2013-02-17 07:20:00,
2013-02-17 02:30:00,18.6,5.1,30.03,West,270,6.0,19.0,55,0.00,,---,0.00,VWS V14.01,2013-02-17 07:30:00,
2013-02-17 02:40:00,18.6,4.7,30.03,WNW,292,5.0,17.0,54,0.00,,---,0.00,VWS V14.01,2013-02-17 07:40:00,
2013-02-17 02:50:00,18.6,5.5,30.03,West,270,6.0,16.0,56,0.00,,---,0.00,VWS V14.01,2013-02-17 07:50:00,
2013-02-17 03:00:00,18.4,6.8,30.02,WNW,292,5.0,12.0,60,0.00,,---,0.00,VWS V14.01,2013-02-17 08:00:00,
2013-02-17 03:10:00,18.3,5.6,30.02,West,270,6.0,16.0,57,0.00,,---,0.00,VWS V14.01,2013-02-17 08:10:00,
2013-02-17 03:20:00,18.3,5.2,30.03,West,270,8.0,19.0,56,0.00,,---,0.00,VWS V14.01,2013-02-17 08:20:00,
2013-02-17 03:30:00,18.3,5.2,30.02,WNW,292,7.0,20.0,56,0.00,,---,0.00,VWS V14.01,2013-02-17 08:30:00,
2013-02-17 03:40:00,18.1,5.8,30.02,WSW,248,6.0,11.0,58,0.00,,---,0.00,VWS V14.01,2013-02-17 08:40:00,
2013-02-17 03:50:00,18.1,5.8,30.02,WNW,292,6.0,12.0,58,0.00,,---,0.00,VWS V14.01,2013-02-17 08:50:00,
2013-02-17 04:00:00,18.1,6.6,30.02,WSW,248,7.0,16.0,60,0.00,,---,0.00,VWS V14.01,2013-02-17 09:00:00,
2013-02-17 04:10:00,18.1,6.6,30.02,WSW,248,5.0,14.0,60,0.00,,---,0.00,VWS V14.01,2013-02-17 09:10:00,
2013-02-17 04:20:00,18.0,5.7,30.04,West,270,6.0,14.0,58,0.00,,---,0.00,VWS V14.01,2013-02-17 09:20:00,
2013-02-17 04:30:00,18.0,5.7,30.04,WSW,248,6.0,12.0,58,0.00,,---,0.00,VWS V14.01,2013-02-17 09:30:00,
2013-02-17 04:40:00,18.0,5.7,30.04,West,270,4.0,12.0,58,0.00,,---,0.00,VWS V14.01,2013-02-17 09:40:00,
2013-02-17 04:50:00,18.1,5.8,30.05,West,270,7.0,18.0,58,0.00,,---,0.00,VWS V14.01,2013-02-17 09:50:00,
2013-02-17 05:00:00,18.0,5.3,30.05,West,270,8.0,19.0,57,0.00,,---,0.00,VWS V14.01,2013-02-17 10:00:00,
2013-02-17 05:10:00,18.1,5.8,30.05,West,270,6.0,13.0,58,0.00,,---,0.00,VWS V14.01,2013-02-17 10:10:00,
2013-02-17 05:20:00,18.0,5.7,30.06,West,270,3.0,12.0,58,0.00,,---,0.00,VWS V14.01,2013-02-17 10:20:00,
2013-02-17 05:30:00,18.0,5.7,30.06,WNW,292,4.0,13.0,58,0.00,,---,0.00,VWS V14.01,2013-02-17 10:30:00,
2013-02-17 05:40:00,17.8,5.5,30.06,West,270,4.0,13.0,58,0.00,,---,0.00,VWS V14.01,2013-02-17 10:40:00,
2013-02-17 05:50:00,17.7,5.4,30.07,West,270,5.0,17.0,58,0.00,,---,0.00,VWS V14.01,2013-02-17 10:50:00,
2013-02-17 06:00:00,17.7,5.4,30.08,West,270,5.0,18.0,58,0.00,,---,0.00,VWS V14.01,2013-02-17 11:00:00,
2013-02-17 06:10:00,17.7,5.8,30.08,West,270,4.0,13.0,59,0.00,,---,0.00,VWS V14.01,2013-02-17 11:10:00,
2013-02-17 06:20:00,17.5,5.6,30.08,West,270,5.0,14.0,59,0.00,,---,0.00,VWS V14.01,2013-02-17 11:20:00,
2013-02-17 06:30:00,17.5,6.0,30.09,WNW,292,3.0,14.0,60,0.00,,---,0.00,VWS V14.01,2013-02-17 11:30:00,
2013-02-17 06:40:00,17.5,6.0,30.09,West,270,6.0,25.0,60,0.00,,---,0.00,VWS V14.01,2013-02-17 11:40:00,
2013-02-17 06:50:00,17.5,6.4,30.09,West,270,4.0,12.0,61,0.00,,---,0.00,VWS V14.01,2013-02-17 11:50:00,
2013-02-17 07:00:00,17.3,6.2,30.11,WNW,292,4.0,8.0,61,0.00,,---,0.00,VWS V14.01,2013-02-17 12:00:00,
2013-02-17 07:10:00,17.3,6.5,30.11,West,270,4.0,11.0,62,0.00,,---,0.00,VWS V14.01,2013-02-17 12:10:00,
2013-02-17 07:20:00,17.5,6.4,30.12,West,270,6.0,15.0,61,0.00,,---,0.00,VWS V14.01,2013-02-17 12:20:00,
2013-02-17 07:30:00,17.5,6.7,30.12,WSW,248,4.0,12.0,62,0.00,,---,0.00,VWS V14.01,2013-02-17 12:30:00,
2013-02-17 07:40:00,17.7,7.3,30.12,West,270,5.0,12.0,63,0.00,,---,0.00,VWS V14.01,2013-02-17 12:40:00,
2013-02-17 07:50:00,18.0,7.5,30.12,WSW,248,6.0,12.0,63,0.00,,---,0.00,VWS V14.01,2013-02-17 12:50:00,
2013-02-17 08:00:00,18.1,7.6,30.12,WNW,292,6.0,14.0,63,0.00,,---,0.00,VWS V14.01,2013-02-17 13:00:00,
2013-02-17 08:10:00,18.6,8.1,30.12,West,270,6.0,14.0,63,0.00,,---,0.00,VWS V14.01,2013-02-17 13:10:00,
2013-02-17 08:20:00,18.8,8.3,30.13,WSW,248,5.0,13.0,63,0.00,,---,0.00,VWS V14.01,2013-02-17 13:20:00,
2013-02-17 08:30:00,19.2,8.3,30.13,West,270,6.0,18.0,62,0.00,,---,0.00,VWS V14.01,2013-02-17 13:30:00,
2013-02-17 08:40:00,19.5,8.6,30.13,WSW,248,7.0,10.0,62,0.00,,---,0.00,VWS V14.01,2013-02-17 13:40:00,
2013-02-17 08:50:00,19.7,8.4,30.14,West,270,7.0,14.0,61,0.00,,---,0.00,VWS V14.01,2013-02-17 13:50:00,
2013-02-17 09:00:00,20.0,8.4,30.15,West,270,8.0,14.0,60,0.00,,---,0.00,VWS V14.01,2013-02-17 14:00:00,
2013-02-17 09:10:00,20.5,8.8,30.15,West,270,7.0,14.0,60,0.00,,---,0.00,VWS V14.01,2013-02-17 14:10:00,
2013-02-17 09:20:00,21.0,8.9,30.16,West,270,6.0,19.0,59,0.00,,---,0.00,VWS V14.01,2013-02-17 14:20:00,
2013-02-17 09:30:00,21.3,8.8,30.15,WSW,248,8.0,18.0,58,0.00,,---,0.00,VWS V14.01,2013-02-17 14:30:00,
2013-02-17 09:40:00,21.6,8.3,30.15,West,270,9.0,20.0,56,0.00,,---,0.00,VWS V14.01,2013-02-17 14:40:00,
2013-02-17 09:50:00,22.1,8.8,30.15,WNW,292,8.0,19.0,56,0.00,,---,0.00,VWS V14.01,2013-02-17 14:50:00,
2013-02-17 10:00:00,22.9,9.2,30.16,WNW,292,6.0,14.0,55,0.00,,---,0.00,VWS V14.01,2013-02-17 15:00:00,
2013-02-17 10:10:00,23.2,9.0,30.16,WNW,292,7.0,16.0,54,0.00,,---,0.00,VWS V14.01,2013-02-17 15:10:00,
2013-02-17 10:20:00,23.5,9.3,30.16,WSW,248,8.0,18.0,54,0.00,,---,0.00,VWS V14.01,2013-02-17 15:20:00,
2013-02-17 10:30:00,23.9,9.7,30.16,WNW,292,7.0,16.0,54,0.00,,---,0.00,VWS V14.01,2013-02-17 15:30:00,
2013-02-17 10:40:00,24.5,9.8,30.16,WNW,292,6.0,17.0,53,0.00,,---,0.00,VWS V14.01,2013-02-17 15:40:00,
2013-02-17 10:50:00,25.0,9.9,30.16,West,270,7.0,16.0,52,0.00,,---,0.00,VWS V14.01,2013-02-17 15:50:00,
2013-02-17 11:00:00,25.0,9.0,30.16,West,270,8.0,18.0,50,0.00,,---,0.00,VWS V14.01,2013-02-17 16:00:00,
2013-02-17 11:10:00,25.3,9.3,30.16,West,270,9.0,18.0,50,0.00,,---,0.00,VWS V14.01,2013-02-17 16:10:00,
2013-02-17 11:20:00,25.8,9.3,30.15,WNW,292,6.0,19.0,49,0.00,,---,0.00,VWS V14.01,2013-02-17 16:20:00,
2013-02-17 11:30:00,25.7,8.7,30.16,WNW,292,10.0,24.0,48,0.00,,---,0.00,VWS V14.01,2013-02-17 16:30:00,
2013-02-17 11:40:00,26.4,10.3,30.16,West,270,8.0,22.0,50,0.00,,---,0.00,VWS V14.01,2013-02-17 16:40:00,
2013-02-17 11:50:00,26.7,8.7,30.16,West,270,9.0,18.0,46,0.00,,---,0.00,VWS V14.01,2013-02-17 16:50:00,
2013-02-17 12:00:00,27.0,8.5,30.15,West,270,9.0,24.0,45,0.00,,---,0.00,VWS V14.01,2013-02-17 17:00:00,
2013-02-17 12:10:00,27.5,9.0,30.15,WNW,292,7.0,21.0,45,0.00,,---,0.00,VWS V14.01,2013-02-17 17:10:00,
2013-02-17 12:20:00,28.1,9.0,30.14,WNW,292,6.0,20.0,44,0.00,,---,0.00,VWS V14.01,2013-02-17 17:20:00,
2013-02-17 12:30:00,28.4,8.2,30.15,WNW,292,8.0,20.0,42,0.00,,---,0.00,VWS V14.01,2013-02-17 17:30:00,
2013-02-17 12:40:00,28.5,8.3,30.15,West,270,9.0,25.0,42,0.00,,---,0.00,VWS V14.01,2013-02-17 17:40:00,
2013-02-17 12:50:00,28.4,7.7,30.15,West,270,8.0,21.0,41,0.00,,---,0.00,VWS V14.01,2013-02-17 17:50:00,
2013-02-17 13:00:00,29.0,7.2,30.14,West,270,7.0,17.0,39,0.00,,---,0.00,VWS V14.01,2013-02-17 18:00:00,
2013-02-17 13:10:00,29.7,7.2,30.14,West,270,8.0,17.0,38,0.00,,---,0.00,VWS V14.01,2013-02-17 18:10:00,
2013-02-17 13:20:00,30.1,7.6,30.14,WNW,292,7.0,16.0,38,0.00,,---,0.00,VWS V14.01,2013-02-17 18:20:00,
2013-02-17 13:30:00,30.0,7.5,30.14,West,270,9.0,21.0,38,0.00,,---,0.00,VWS V14.01,2013-02-17 18:30:00,
2013-02-17 13:40:00,29.7,7.2,30.14,West,270,10.0,19.0,38,0.00,,---,0.00,VWS V14.01,2013-02-17 18:40:00,
2013-02-17 13:50:00,30.0,7.5,30.14,West,270,8.0,18.0,38,0.00,,---,0.00,VWS V14.01,2013-02-17 18:50:00,
2013-02-17 14:00:00,30.3,7.8,30.13,West,270,8.0,16.0,38,0.00,,---,0.00,VWS V14.01,2013-02-17 19:00:00,
2013-02-17 14:10:00,30.3,7.8,30.13,West,270,9.0,20.0,38,0.00,,---,0.00,VWS V14.01,2013-02-17 19:10:00,
2013-02-17 14:20:00,30.7,7.5,30.13,West,270,7.0,17.0,37,0.00,,---,0.00,VWS V14.01,2013-02-17 19:20:00,
2013-02-17 14:30:00,31.3,8.6,30.13,WNW,292,6.0,16.0,38,0.00,,---,0.00,VWS V14.01,2013-02-17 19:30:00,
2013-02-17 14:47:00,31.3,8.6,30.13,WNW,292,6.0,16.0,38,0.00,,---,0.00,VWS V14.01,2013-02-17 19:47:00,
2013-02-17 14:52:00,31.3,7.5,30.14,WSW,245,8.0,19.0,36,0.00,,---,0.00,VWS V14.01,2013-02-17 19:52:00,
2013-02-17 14:57:00,31.5,7.6,30.14,WNW,286,3.0,14.0,36,0.00,,---,0.00,VWS V14.01,2013-02-17 19:57:00,
2013-02-17 15:02:00,31.9,7.4,30.13,West,275,6.0,14.0,35,0.00,,---,0.00,VWS V14.01,2013-02-17 20:02:00,
2013-02-17 15:07:00,31.9,6.7,30.13,WSW,251,11.0,18.0,34,0.00,,---,0.00,VWS V14.01,2013-02-17 20:07:00,
2013-02-17 15:12:00,32.1,7.6,30.13,WNW,290,6.0,18.0,35,0.00,,---,0.00,VWS V14.01,2013-02-17 20:12:00,
2013-02-17 15:17:00,32.1,7.6,30.13,West,262,6.0,17.0,35,0.00,,---,0.00,VWS V14.01,2013-02-17 20:17:00,
2013-02-17 15:22:00,32.2,7.6,30.13,West,266,8.0,17.0,35,0.00,,---,0.00,VWS V14.01,2013-02-17 20:22:00,
2013-02-17 15:27:00,32.2,7.6,30.13,West,269,10.0,11.0,35,0.00,,---,0.00,VWS V14.01,2013-02-17 20:27:00,
2013-02-17 15:32:00,32.4,7.8,30.14,West,261,8.0,18.0,35,0.00,,---,0.00,VWS V14.01,2013-02-17 20:32:00,
2013-02-17 15:37:00,32.2,7.0,30.14,WSW,252,3.0,10.0,34,0.00,,---,0.00,VWS V14.01,2013-02-17 20:37:00,
2013-02-17 15:42:00,32.2,7.6,30.14,West,259,6.0,14.0,35,0.00,,---,0.00,VWS V14.01,2013-02-17 20:42:00,
2013-02-17 15:47:00,32.4,7.8,30.15,WSW,255,10.0,14.0,35,0.00,,---,0.00,VWS V14.01,2013-02-17 20:47:00,
2013-02-17 15:52:00,32.4,7.8,30.15,WNW,289,7.0,14.0,35,0.00,,---,0.00,VWS V14.01,2013-02-17 20:52:00,
2013-02-17 15:57:00,32.2,7.6,30.15,WSW,238,8.0,12.0,35,0.00,,---,0.00,VWS V14.01,2013-02-17 20:57:00,
2013-02-17 16:02:00,32.1,7.6,30.15,SW,230,3.0,16.0,35,0.00,,---,0.00,VWS V14.01,2013-02-17 21:02:00,
2013-02-17 16:07:00,31.9,7.4,30.15,West,281,5.0,10.0,35,0.00,,---,0.00,VWS V14.01,2013-02-17 21:07:00,
2013-02-17 16:12:00,31.8,7.3,30.15,WNW,285,8.0,12.0,35,0.00,,---,0.00,VWS V14.01,2013-02-17 21:12:00,
2013-02-17 16:17:00,31.6,7.1,30.16,NNW,338,1.0,16.0,35,0.00,,---,0.00,VWS V14.01,2013-02-17 21:17:00,
2013-02-17 16:22:00,31.6,7.7,30.16,WSW,241,1.0,16.0,36,0.00,,---,0.00,VWS V14.01,2013-02-17 21:22:00,
2013-02-17 16:27:00,31.6,6.5,30.16,NW,305,2.0,13.0,34,0.00,,---,0.00,VWS V14.01,2013-02-17 21:27:00,
2013-02-17 16:32:00,31.6,7.1,30.16,NNW,340,13.0,14.0,35,0.00,,---,0.00,VWS V14.01,2013-02-17 21:32:00,
2013-02-17 16:37:00,31.6,7.1,30.16,WSW,250,0.0,5.0,35,0.00,,---,0.00,VWS V14.01,2013-02-17 21:37:00,
2013-02-17 16:42:00,31.6,6.5,30.16,WSW,244,6.0,18.0,34,0.00,,---,0.00,VWS V14.01,2013-02-17 21:42:00,
2013-02-17 16:47:00,31.6,6.5,30.16,WSW,254,6.0,7.0,34,0.00,,---,0.00,VWS V14.01,2013-02-17 21:47:00,
2013-02-17 16:52:00,31.6,7.1,30.16,West,281,5.0,9.0,35,0.00,,---,0.00,VWS V14.01,2013-02-17 21:52:00,
2013-02-17 16:57:00,31.6,6.5,30.16,NW,309,5.0,13.0,34,0.00,,---,0.00,VWS V14.01,2013-02-17 21:57:00,
2013-02-17 17:02:00,31.6,6.5,30.16,WSW,248,4.0,13.0,34,0.00,,---,0.00,VWS V14.01,2013-02-17 22:02:00,
2013-02-17 17:07:00,31.5,7.0,30.16,WNW,293,5.0,13.0,35,0.00,,---,0.00,VWS V14.01,2013-02-17 22:07:00,
2013-02-17 17:12:00,31.3,6.2,30.16,WSW,252,6.0,13.0,34,0.00,,---,0.00,VWS V14.01,2013-02-17 22:12:00,
2013-02-17 17:16:00,31.2,6.1,30.17,WNW,283,6.0,11.0,34,0.00,,---,0.00,VWS V14.01,2013-02-17 22:16:00,
2013-02-17 17:22:00,31.2,5.5,30.17,WSW,238,2.0,11.0,33,0.00,,---,0.00,VWS V14.01,2013-02-17 22:22:00,
2013-02-17 17:26:00,31.0,5.3,30.17,WSW,258,3.0,8.0,33,0.00,,---,0.00,VWS V14.01,2013-02-17 22:26:00,
2013-02-17 17:31:00,31.0,5.3,30.18,West,261,4.0,11.0,33,0.00,,---,0.00,VWS V14.01,2013-02-17 22:31:00,
2013-02-17 17:36:00,30.9,5.2,30.18,NW,310,3.0,14.0,33,0.00,,---,0.00,VWS V14.01,2013-02-17 22:36:00,
2013-02-17 17:41:00,30.7,5.0,30.18,NW,309,7.0,14.0,33,0.00,,---,0.00,VWS V14.01,2013-02-17 22:41:00,
2013-02-17 17:46:00,30.4,5.4,30.19,WNW,289,6.0,12.0,34,0.00,,---,0.00,VWS V14.01,2013-02-17 22:46:00,
2013-02-17 17:51:00,30.3,5.9,30.19,West,274,3.0,12.0,35,0.00,,---,0.00,VWS V14.01,2013-02-17 22:51:00,
2013-02-17 17:56:00,30.1,5.8,30.19,West,269,2.0,6.0,35,0.00,,---,0.00,VWS V14.01,2013-02-17 22:56:00,
2013-02-17 18:01:00,30.0,6.3,30.20,West,275,0.0,6.0,36,0.00,,---,0.00,VWS V14.01,2013-02-17 23:01:00,
2013-02-17 18:06:00,29.8,6.1,30.20,WNW,290,3.0,7.0,36,0.00,,---,0.00,VWS V14.01,2013-02-17 23:06:00,
2013-02-17 18:11:00,29.7,6.6,30.20,WNW,295,0.0,8.0,37,0.00,,---,0.00,VWS V14.01,2013-02-17 23:11:00,
2013-02-17 18:16:00,29.5,6.4,30.20,WSW,242,3.0,5.0,37,0.00,,---,0.00,VWS V14.01,2013-02-17 23:16:00,
2013-02-17 18:21:00,29.3,5.7,30.20,WSW,244,3.0,7.0,36,0.00,,---,0.00,VWS V14.01,2013-02-17 23:21:00,
2013-02-17 18:26:00,29.1,6.1,30.20,West,259,2.0,7.0,37,0.00,,---,0.00,VWS V14.01,2013-02-17 23:26:00,
2013-02-17 18:31:00,29.0,6.0,30.21,West,272,5.0,11.0,37,0.00,,---,0.00,VWS V14.01,2013-02-17 23:31:00,
2013-02-17 18:36:00,28.8,5.8,30.21,West,261,0.0,9.0,37,0.00,,---,0.00,VWS V14.01,2013-02-17 23:36:00,
2013-02-17 18:41:00,28.8,5.8,30.21,West,271,6.0,11.0,37,0.00,,---,0.00,VWS V14.01,2013-02-17 23:41:00,
2013-02-17 18:46:00,28.7,5.7,30.22,West,272,6.0,8.0,37,0.00,,---,0.00,VWS V14.01,2013-02-17 23:46:00,
2013-02-17 18:51:00,28.7,5.7,30.22,WSW,238,10.0,10.0,37,0.00,,---,0.00,VWS V14.01,2013-02-17 23:51:00,
2013-02-17 18:56:00,28.5,6.1,30.22,NW,306,1.0,6.0,38,0.00,,---,0.00,VWS V14.01,2013-02-17 23:56:00,
2013-02-17 19:01:00,28.5,6.1,30.22,West,266,3.0,9.0,38,0.00,,---,0.00,VWS V14.01,2013-02-18 00:01:00,
2013-02-17 19:06:00,28.4,6.6,30.22,West,268,4.0,12.0,39,0.00,,---,0.00,VWS V14.01,2013-02-18 00:06:00,
2013-02-17 19:11:00,28.4,6.6,30.22,WSW,245,6.0,12.0,39,0.00,,---,0.00,VWS V14.01,2013-02-18 00:11:00,
2013-02-17 19:16:00,28.4,6.6,30.23,WNW,282,3.0,8.0,39,0.00,,---,0.00,VWS V14.01,2013-02-18 00:16:00,
2013-02-17 19:21:00,28.4,7.2,30.23,West,275,5.0,8.0,40,0.00,,---,0.00,VWS V14.01,2013-02-18 00:21:00,
2013-02-17 19:26:00,28.2,7.0,30.23,West,275,5.0,10.0,40,0.00,,---,0.00,VWS V14.01,2013-02-18 00:26:00,
2013-02-17 19:31:00,28.2,7.0,30.23,WNW,282,3.0,10.0,40,0.00,,---,0.00,VWS V14.01,2013-02-18 00:31:00,
2013-02-17 19:36:00,28.2,7.0,30.24,West,269,5.0,10.0,40,0.00,,---,0.00,VWS V14.01,2013-02-18 00:36:00,
2013-02-17 19:41:00,28.1,6.9,30.24,West,281,3.0,10.0,40,0.00,,---,0.00,VWS V14.01,2013-02-18 00:41:00,
2013-02-17 19:46:00,28.1,6.9,30.24,West,274,3.0,5.0,40,0.00,,---,0.00,VWS V14.01,2013-02-18 00:46:00,
2013-02-17 19:51:00,27.9,7.3,30.24,WSW,237,3.0,8.0,41,0.00,,---,0.00,VWS V14.01,2013-02-18 00:51:00,
2013-02-17 19:56:00,27.9,7.3,30.24,WSW,248,5.0,6.0,41,0.00,,---,0.00,VWS V14.01,2013-02-18 00:56:00,
2013-02-17 20:01:00,27.9,7.3,30.24,West,268,5.0,7.0,41,0.00,,---,0.00,VWS V14.01,2013-02-18 01:01:00,
2013-02-17 20:06:00,27.8,7.2,30.24,WSW,255,3.0,7.0,41,0.00,,---,0.00,VWS V14.01,2013-02-18 01:06:00,
2013-02-17 20:11:00,27.8,7.2,30.24,West,261,3.0,7.0,41,0.00,,---,0.00,VWS V14.01,2013-02-18 01:11:00,
2013-02-17 20:16:00,27.8,7.2,30.24,West,268,1.0,6.0,41,0.00,,---,0.00,VWS V14.01,2013-02-18 01:16:00,
2013-02-17 20:21:00,27.8,7.2,30.24,SW,233,2.0,7.0,41,0.00,,---,0.00,VWS V14.01,2013-02-18 01:21:00,
2013-02-17 20:26:00,27.8,7.7,30.24,West,279,4.0,6.0,42,0.00,,---,0.00,VWS V14.01,2013-02-18 01:26:00,
2013-02-17 20:31:00,27.8,7.7,30.24,West,276,2.0,7.0,42,0.00,,---,0.00,VWS V14.01,2013-02-18 01:31:00,
2013-02-17 20:36:00,27.6,8.0,30.24,West,276,0.0,4.0,43,0.00,,---,0.00,VWS V14.01,2013-02-18 01:36:00,
2013-02-17 20:41:00,27.5,7.9,30.24,West,278,0.0,4.0,43,0.00,,---,0.00,VWS V14.01,2013-02-18 01:41:00,
2013-02-17 20:46:00,27.3,7.8,30.24,West,268,0.0,1.0,43,0.00,,---,0.00,VWS V14.01,2013-02-18 01:46:00,
2013-02-17 20:51:00,27.3,7.8,30.25,West,275,0.0,3.0,43,0.00,,---,0.00,VWS V14.01,2013-02-18 01:51:00,
2013-02-17 20:56:00,27.2,7.7,30.25,WSW,247,0.0,3.0,43,0.00,,---,0.00,VWS V14.01,2013-02-18 01:56:00,
2013-02-17 21:01:00,27.2,8.2,30.25,West,281,0.0,3.0,44,0.00,,---,0.00,VWS V14.01,2013-02-18 02:01:00,
2013-02-17 21:06:00,27.0,8.0,30.25,West,281,0.0,2.0,44,0.00,,---,0.00,VWS V14.01,2013-02-18 02:06:00,
2013-02-17 21:11:00,27.0,8.5,30.25,West,281,0.0,2.0,45,0.00,,---,0.00,VWS V14.01,2013-02-18 02:11:00,
2013-02-17 21:16:00,26.9,8.9,30.25,West,281,0.0,1.0,46,0.00,,---,0.00,VWS V14.01,2013-02-18 02:16:00,
2013-02-17 21:21:00,26.7,8.2,30.24,WNW,286,0.0,2.0,45,0.00,,---,0.00,VWS V14.01,2013-02-18 02:21:00,
2013-02-17 21:26:00,26.6,8.1,30.24,West,279,0.0,3.0,45,0.00,,---,0.00,VWS V14.01,2013-02-18 02:26:00,
2013-02-17 21:31:00,26.4,8.9,30.24,West,279,0.0,3.0,47,0.00,,---,0.00,VWS V14.01,2013-02-18 02:31:00,
2013-02-17 21:36:00,26.4,9.4,30.25,West,279,0.0,0.0,48,0.00,,---,0.00,VWS V14.01,2013-02-18 02:36:00,
2013-02-17 21:41:00,26.1,9.1,30.25,West,279,0.0,0.0,48,0.00,,---,0.00,VWS V14.01,2013-02-18 02:41:00,
2013-02-17 21:46:00,26.0,9.0,30.25,West,279,0.0,0.0,48,0.00,,---,0.00,VWS V14.01,2013-02-18 02:46:00,
2013-02-17 21:51:00,25.8,8.8,30.26,West,279,0.0,0.0,48,0.00,,---,0.00,VWS V14.01,2013-02-18 02:51:00,
2013-02-17 21:56:00,25.7,8.7,30.26,West,279,0.0,0.0,48,0.00,,---,0.00,VWS V14.01,2013-02-18 02:56:00,
2013-02-17 22:01:00,25.4,8.9,30.26,West,279,0.0,0.0,49,0.00,,---,0.00,VWS V14.01,2013-02-18 03:01:00,
2013-02-17 22:06:00,25.4,9.8,30.26,West,279,0.0,0.0,51,0.00,,---,0.00,VWS V14.01,2013-02-18 03:06:00,
2013-02-17 22:11:00,25.1,9.1,30.26,West,279,0.0,0.0,50,0.00,,---,0.00,VWS V14.01,2013-02-18 03:11:00,
2013-02-17 22:16:00,25.0,9.9,30.26,West,279,0.0,0.0,52,0.00,,---,0.00,VWS V14.01,2013-02-18 03:16:00,
2013-02-17 22:21:00,24.7,9.6,30.26,West,279,0.0,0.0,52,0.00,,---,0.00,VWS V14.01,2013-02-18 03:21:00,
2013-02-17 22:26:00,24.5,9.4,30.26,West,279,0.0,0.0,52,0.00,,---,0.00,VWS V14.01,2013-02-18 03:26:00,
2013-02-17 22:31:00,24.4,9.7,30.26,West,279,0.0,0.0,53,0.00,,---,0.00,VWS V14.01,2013-02-18 03:31:00,
2013-02-17 22:36:00,24.1,10.3,30.27,West,279,0.0,0.0,55,0.00,,---,0.00,VWS V14.01,2013-02-18 03:36:00,
2013-02-17 22:41:00,23.9,10.1,30.27,West,279,0.0,0.0,55,0.00,,---,0.00,VWS V14.01,2013-02-18 03:41:00,
2013-02-17 22:46:00,23.6,10.6,30.27,West,279,0.0,0.0,57,0.00,,---,0.00,VWS V14.01,2013-02-18 03:46:00,
2013-02-17 22:51:00,23.3,10.3,30.27,West,279,0.0,0.0,57,0.00,,---,0.00,VWS V14.01,2013-02-18 03:51:00,
2013-02-17 22:56:00,23.0,9.7,30.27,West,279,0.0,0.0,56,0.00,,---,0.00,VWS V14.01,2013-02-18 03:56:00,
2013-02-17 23:01:00,22.9,10.3,30.27,West,279,0.0,0.0,58,0.00,,---,0.00,VWS V14.01,2013-02-18 04:01:00,
2013-02-17 23:06:00,22.7,10.2,30.27,West,279,0.0,0.0,58,0.00,,---,0.00,VWS V14.01,2013-02-18 04:06:00,
2013-02-17 23:11:00,22.4,10.6,30.27,West,279,0.0,0.0,60,0.00,,---,0.00,VWS V14.01,2013-02-18 04:11:00,
2013-02-17 23:16:00,22.2,10.4,30.27,West,279,0.0,0.0,60,0.00,,---,0.00,VWS V14.01,2013-02-18 04:16:00,
2013-02-17 23:21:00,22.1,10.7,30.27,West,279,0.0,0.0,61,0.00,,---,0.00,VWS V14.01,2013-02-18 04:21:00,
2013-02-17 23:26:00,21.9,10.9,30.27,West,279,0.0,0.0,62,0.00,,---,0.00,VWS V14.01,2013-02-18 04:26:00,
2013-02-17 23:31:00,21.8,10.4,30.27,West,279,0.0,0.0,61,0.00,,---,0.00,VWS V14.01,2013-02-18 04:31:00,
2013-02-17 23:36:00,21.6,10.6,30.27,West,279,0.0,0.0,62,0.00,,---,0.00,VWS V14.01,2013-02-18 04:36:00,
2013-02-17 23:41:00,21.4,10.8,30.27,West,279,0.0,0.0,63,0.00,,---,0.00,VWS V14.01,2013-02-18 04:41:00,
2013-02-17 23:46:00,21.3,10.7,30.27,West,279,0.0,0.0,63,0.00,,---,0.00,VWS V14.01,2013-02-18 04:46:00,
2013-02-17 23:51:00,21.1,10.5,30.28,West,279,0.0,0.0,63,0.00,,---,0.00,VWS V14.01,2013-02-18 04:51:00,
2013-02-17 23:56:00,21.1,10.5,30.28,West,279,0.0,0.0,63,0.00,,---,0.00,VWS V14.01,2013-02-18 04:56:00,